^^
Station Historical Data
Daily Summary for June 5, 2017 Units:  Both    English   Metric
« Previous Day
Next Day »
Daily Weekly Monthly Yearly Custom
  High: Low: Average:
Temperature: 74.5 °F /  23.6 °C 45.7 °F /  7.6 °C 59.2 °F /  15.1 °C
Dew Point: 41.0 °F /  5 °C 28.6 °F /  -1.9 °C 35.1 °F /  1.7 °C
Humidity: 57% 28% 42%
Wind Speed: 6.9mph /  11.1km/h - 0.9mph /  1.4km/h
Wind Gust: 12.0mph /  19.3km/h - -
Wind- - SSW
Pressure: 30.37 in /  1028.3 hPa 30.24 in /  1023.9 hPa -
Precipitation: 0.00 in /  0 mm    
Historical Graphs
 
 
Tabular Data for June 5, 2017
Time Temperature Dew Point Pressure Wind Wind Speed Wind Gust Humidity Rainfall Rate (Hourly) solar Conditions
00:03 46.9 °F /  8.3 °C 29.8 °F /  -1.2 °C 30.37in /  1028.3hPa Calm     51% 0.00in /  0mm 0.0 W/m2
00:09 46.8 °F /  8.2 °C 29.7 °F /  -1.3 °C 30.36in /  1028hPa Calm     51% 0.00in /  0mm 0.0 W/m2
00:15 46.6 °F /  8.1 °C 29.5 °F /  -1.4 °C 30.36in /  1028hPa Calm     51% 0.00in /  0mm 0.0 W/m2
00:21 46.2 °F /  7.9 °C 29.1 °F /  -1.6 °C 30.36in /  1028hPa Calm     51% 0.00in /  0mm 0.0 W/m2
00:27 46.0 °F /  7.8 °C 29.5 °F /  -1.4 °C 30.36in /  1028hPa Calm     52% 0.00in /  0mm 0.0 W/m2
00:33 45.9 °F /  7.7 °C 29.7 °F /  -1.3 °C 30.36in /  1028hPa Calm     53% 0.00in /  0mm 0.0 W/m2
00:40 45.7 °F /  7.6 °C 29.5 °F /  -1.4 °C 30.36in /  1028hPa East 0.9mph /  1.4km/h 1.0mph /  1.6km/h 53% 0.00in /  0mm 0.0 W/m2
00:46 45.9 °F /  7.7 °C 29.3 °F /  -1.5 °C 30.35in /  1027.7hPa Calm   2.0mph /  3.2km/h 52% 0.00in /  0mm 0.0 W/m2
00:52 46.0 °F /  7.8 °C 29.5 °F /  -1.4 °C 30.35in /  1027.7hPa East 0.9mph /  1.4km/h 1.0mph /  1.6km/h 52% 0.00in /  0mm 0.0 W/m2
00:58 46.2 °F /  7.9 °C 29.5 °F /  -1.4 °C 30.35in /  1027.7hPa Calm   2.0mph /  3.2km/h 52% 0.00in /  0mm 0.0 W/m2
01:04 46.6 °F /  8.1 °C 29.5 °F /  -1.4 °C 30.35in /  1027.7hPa Calm   1.0mph /  1.6km/h 51% 0.00in /  0mm 0.0 W/m2
01:10 46.9 °F /  8.3 °C 29.8 °F /  -1.2 °C 30.35in /  1027.7hPa Calm     51% 0.00in /  0mm 0.0 W/m2
01:16 46.9 °F /  8.3 °C 29.3 °F /  -1.5 °C 30.35in /  1027.7hPa Calm   2.0mph /  3.2km/h 50% 0.00in /  0mm 0.0 W/m2
01:23 46.9 °F /  8.3 °C 29.3 °F /  -1.5 °C 30.35in /  1027.7hPa Calm     50% 0.00in /  0mm 0.0 W/m2
01:29 46.9 °F /  8.3 °C 29.3 °F /  -1.5 °C 30.35in /  1027.7hPa Calm   1.0mph /  1.6km/h 50% 0.00in /  0mm 0.0 W/m2
01:35 46.9 °F /  8.3 °C 29.3 °F /  -1.5 °C 30.35in /  1027.7hPa Calm   1.0mph /  1.6km/h 50% 0.00in /  0mm 0.0 W/m2
01:41 47.1 °F /  8.4 °C 29.5 °F /  -1.4 °C 30.35in /  1027.7hPa Calm   2.0mph /  3.2km/h 50% 0.00in /  0mm 0.0 W/m2
01:47 47.3 °F /  8.5 °C 29.1 °F /  -1.6 °C 30.35in /  1027.7hPa Calm   2.0mph /  3.2km/h 49% 0.00in /  0mm 0.0 W/m2
01:53 47.7 °F /  8.7 °C 29.5 °F /  -1.4 °C 30.35in /  1027.7hPa Calm   1.0mph /  1.6km/h 49% 0.00in /  0mm 0.0 W/m2
01:59 47.8 °F /  8.8 °C 29.7 °F /  -1.3 °C 30.34in /  1027.3hPa Calm   1.0mph /  1.6km/h 49% 0.00in /  0mm 0.0 W/m2
02:06 47.8 °F /  8.8 °C 29.7 °F /  -1.3 °C 30.34in /  1027.3hPa Calm   1.0mph /  1.6km/h 49% 0.00in /  0mm 0.0 W/m2
02:12 48.0 °F /  8.9 °C 29.3 °F /  -1.5 °C 30.34in /  1027.3hPa Calm   1.0mph /  1.6km/h 48% 0.00in /  0mm 0.0 W/m2
02:18 48.0 °F /  8.9 °C 29.3 °F /  -1.5 °C 30.34in /  1027.3hPa East 0.9mph /  1.4km/h 2.0mph /  3.2km/h 48% 0.00in /  0mm 0.0 W/m2
02:24 48.0 °F /  8.9 °C 29.3 °F /  -1.5 °C 30.34in /  1027.3hPa Calm   3.0mph /  4.8km/h 48% 0.00in /  0mm 0.0 W/m2
02:30 48.0 °F /  8.9 °C 29.3 °F /  -1.5 °C 30.34in /  1027.3hPa Calm   2.0mph /  3.2km/h 48% 0.00in /  0mm 0.0 W/m2
02:36 48.2 °F /  9 °C 29.5 °F /  -1.4 °C 30.34in /  1027.3hPa Calm   3.0mph /  4.8km/h 48% 0.00in /  0mm 0.0 W/m2
02:42 48.4 °F /  9.1 °C 29.1 °F /  -1.6 °C 30.34in /  1027.3hPa Calm   1.0mph /  1.6km/h 47% 0.00in /  0mm 0.0 W/m2
02:48 48.4 °F /  9.1 °C 29.1 °F /  -1.6 °C 30.34in /  1027.3hPa ENE 2.9mph /  4.7km/h 3.0mph /  4.8km/h 47% 0.00in /  0mm 0.0 W/m2
02:56 48.4 °F /  9.1 °C 29.1 °F /  -1.6 °C 30.34in /  1027.3hPa Calm   4.0mph /  6.4km/h 47% 0.00in /  0mm 0.0 W/m2
03:03 48.4 °F /  9.1 °C 29.1 °F /  -1.6 °C 30.34in /  1027.3hPa Calm   1.0mph /  1.6km/h 47% 0.00in /  0mm 0.0 W/m2
03:09 48.2 °F /  9 °C 28.9 °F /  -1.7 °C 30.34in /  1027.3hPa Calm   1.0mph /  1.6km/h 47% 0.00in /  0mm 0.0 W/m2
03:15 48.0 °F /  8.9 °C 28.8 °F /  -1.8 °C 30.34in /  1027.3hPa Calm     47% 0.00in /  0mm 0.0 W/m2
03:21 48.0 °F /  8.9 °C 29.3 °F /  -1.5 °C 30.34in /  1027.3hPa Calm   2.0mph /  3.2km/h 48% 0.00in /  0mm 0.0 W/m2
03:27 47.8 °F /  8.8 °C 28.6 °F /  -1.9 °C 30.34in /  1027.3hPa Calm   3.0mph /  4.8km/h 47% 0.00in /  0mm 0.0 W/m2
03:33 48.0 °F /  8.9 °C 28.8 °F /  -1.8 °C 30.33in /  1027hPa Calm   3.0mph /  4.8km/h 47% 0.00in /  0mm 0.0 W/m2
03:39 48.0 °F /  8.9 °C 28.8 °F /  -1.8 °C 30.34in /  1027.3hPa Calm   1.0mph /  1.6km/h 47% 0.00in /  0mm 0.0 W/m2
03:45 47.8 °F /  8.8 °C 28.6 °F /  -1.9 °C 30.34in /  1027.3hPa Calm   1.0mph /  1.6km/h 47% 0.00in /  0mm 0.0 W/m2
03:52 47.8 °F /  8.8 °C 28.6 °F /  -1.9 °C 30.33in /  1027hPa Calm   1.0mph /  1.6km/h 47% 0.00in /  0mm 0.0 W/m2
03:58 47.8 °F /  8.8 °C 29.1 °F /  -1.6 °C 30.34in /  1027.3hPa Calm   1.0mph /  1.6km/h 48% 0.00in /  0mm 0.0 W/m2
04:04 47.8 °F /  8.8 °C 28.6 °F /  -1.9 °C 30.34in /  1027.3hPa Calm   2.0mph /  3.2km/h 47% 0.00in /  0mm 0.0 W/m2
04:10 47.8 °F /  8.8 °C 29.1 °F /  -1.6 °C 30.33in /  1027hPa Calm   1.0mph /  1.6km/h 48% 0.00in /  0mm 0.0 W/m2
04:16 47.7 °F /  8.7 °C 28.9 °F /  -1.7 °C 30.33in /  1027hPa Calm     48% 0.00in /  0mm 0.0 W/m2
04:22 47.7 °F /  8.7 °C 28.9 °F /  -1.7 °C 30.33in /  1027hPa Calm   1.0mph /  1.6km/h 48% 0.00in /  0mm 0.0 W/m2
04:28 47.5 °F /  8.6 °C 28.8 °F /  -1.8 °C 30.33in /  1027hPa Calm   6.0mph /  9.7km/h 48% 0.00in /  0mm 0.0 W/m2
04:34 47.5 °F /  8.6 °C 28.8 °F /  -1.8 °C 30.34in /  1027.3hPa Calm   5.0mph /  8km/h 48% 0.00in /  0mm 0.0 W/m2
04:40 47.7 °F /  8.7 °C 28.9 °F /  -1.7 °C 30.33in /  1027hPa Calm   6.0mph /  9.7km/h 48% 0.00in /  0mm 0.0 W/m2
04:47 47.7 °F /  8.7 °C 28.9 °F /  -1.7 °C 30.33in /  1027hPa Calm   2.0mph /  3.2km/h 48% 0.00in /  0mm 0.0 W/m2
04:53 47.5 °F /  8.6 °C 28.8 °F /  -1.8 °C 30.33in /  1027hPa Calm   1.0mph /  1.6km/h 48% 0.00in /  0mm 0.0 W/m2
04:59 47.5 °F /  8.6 °C 28.8 °F /  -1.8 °C 30.33in /  1027hPa Calm     48% 0.00in /  0mm 0.0 W/m2
05:05 47.5 °F /  8.6 °C 28.8 °F /  -1.8 °C 30.33in /  1027hPa Calm   2.0mph /  3.2km/h 48% 0.00in /  0mm 0.0 W/m2
05:11 47.5 °F /  8.6 °C 28.8 °F /  -1.8 °C 30.33in /  1027hPa Calm   1.0mph /  1.6km/h 48% 0.00in /  0mm 0.0 W/m2
05:17 47.5 °F /  8.6 °C 29.3 °F /  -1.5 °C 30.33in /  1027hPa Calm   1.0mph /  1.6km/h 49% 0.00in /  0mm 0.0 W/m2
05:23 47.5 °F /  8.6 °C 29.3 °F /  -1.5 °C 30.33in /  1027hPa ESE 0.9mph /  1.4km/h 1.0mph /  1.6km/h 49% 0.00in /  0mm 0.0 W/m2
05:30 47.3 °F /  8.5 °C 29.1 °F /  -1.6 °C 30.33in /  1027hPa Calm   3.0mph /  4.8km/h 49% 0.00in /  0mm 0.0 W/m2
05:36 47.3 °F /  8.5 °C 29.1 °F /  -1.6 °C 30.33in /  1027hPa Calm   2.0mph /  3.2km/h 49% 0.00in /  0mm 0.0 W/m2
05:42 47.1 °F /  8.4 °C 28.9 °F /  -1.7 °C 30.33in /  1027hPa Calm     49% 0.00in /  0mm 0.0 W/m2
05:48 47.3 °F /  8.5 °C 29.1 °F /  -1.6 °C 30.34in /  1027.3hPa East 2.0mph /  3.2km/h 3.0mph /  4.8km/h 49% 0.00in /  0mm 0.0 W/m2
05:54 47.5 °F /  8.6 °C 29.3 °F /  -1.5 °C 30.34in /  1027.3hPa East 2.0mph /  3.2km/h 5.0mph /  8km/h 49% 0.00in /  0mm 0.0 W/m2
06:00 47.5 °F /  8.6 °C 28.8 °F /  -1.8 °C 30.34in /  1027.3hPa Calm   1.0mph /  1.6km/h 48% 0.00in /  0mm 0.0 W/m2
06:06 47.5 °F /  8.6 °C 29.3 °F /  -1.5 °C 30.34in /  1027.3hPa Calm   1.0mph /  1.6km/h 49% 0.00in /  0mm 0.0 W/m2
06:13 47.5 °F /  8.6 °C 28.8 °F /  -1.8 °C 30.34in /  1027.3hPa Calm   1.0mph /  1.6km/h 48% 0.00in /  0mm 0.0 W/m2
06:19 47.5 °F /  8.6 °C 28.8 °F /  -1.8 °C 30.34in /  1027.3hPa Calm   4.0mph /  6.4km/h 48% 0.00in /  0mm 0.0 W/m2
06:25 47.5 °F /  8.6 °C 29.3 °F /  -1.5 °C 30.34in /  1027.3hPa Calm   2.0mph /  3.2km/h 49% 0.00in /  0mm 0.0 W/m2
06:31 47.5 °F /  8.6 °C 29.3 °F /  -1.5 °C 30.35in /  1027.7hPa East 0.9mph /  1.4km/h 1.0mph /  1.6km/h 49% 0.00in /  0mm 5.0 W/m2
06:37 47.3 °F /  8.5 °C 29.1 °F /  -1.6 °C 30.35in /  1027.7hPa Calm   3.0mph /  4.8km/h 49% 0.00in /  0mm 7.0 W/m2
06:43 47.3 °F /  8.5 °C 29.1 °F /  -1.6 °C 30.35in /  1027.7hPa Calm     49% 0.00in /  0mm 11.0 W/m2
06:50 47.3 °F /  8.5 °C 29.7 °F /  -1.3 °C 30.35in /  1027.7hPa Calm   1.0mph /  1.6km/h 50% 0.00in /  0mm 12.0 W/m2
06:55 47.3 °F /  8.5 °C 29.7 °F /  -1.3 °C 30.35in /  1027.7hPa East 0.9mph /  1.4km/h 3.0mph /  4.8km/h 50% 0.00in /  0mm 14.0 W/m2
07:01 47.5 °F /  8.6 °C 29.8 °F /  -1.2 °C 30.35in /  1027.7hPa Calm   4.0mph /  6.4km/h 50% 0.00in /  0mm 16.0 W/m2
07:08 47.7 °F /  8.7 °C 30.0 °F /  -1.1 °C 30.36in /  1028hPa ESE 0.9mph /  1.4km/h 4.0mph /  6.4km/h 50% 0.00in /  0mm 18.0 W/m2
07:14 47.8 °F /  8.8 °C 30.0 °F /  -1.1 °C 30.36in /  1028hPa Calm   4.0mph /  6.4km/h 50% 0.00in /  0mm 19.0 W/m2
07:20 48.4 °F /  9.1 °C 30.0 °F /  -1.1 °C 30.36in /  1028hPa Calm   1.0mph /  1.6km/h 49% 0.00in /  0mm 19.0 W/m2
07:26 48.9 °F /  9.4 °C 30.6 °F /  -0.8 °C 30.37in /  1028.3hPa Calm   1.0mph /  1.6km/h 49% 0.00in /  0mm 21.0 W/m2
07:34 49.8 °F /  9.9 °C 31.5 °F /  -0.3 °C 30.37in /  1028.3hPa Calm     49% 0.00in /  0mm 23.0 W/m2
07:40 50.5 °F /  10.3 °C 31.1 °F /  -0.5 °C 30.37in /  1028.3hPa Calm   4.0mph /  6.4km/h 47% 0.00in /  0mm 25.0 W/m2
07:46 52.0 °F /  11.1 °C 31.3 °F /  -0.4 °C 30.37in /  1028.3hPa Calm   2.0mph /  3.2km/h 45% 0.00in /  0mm 26.0 W/m2
07:53 53.8 °F /  12.1 °C 32.4 °F /  0.2 °C 30.37in /  1028.3hPa Calm     44% 0.00in /  0mm 28.0 W/m2
07:59 55.6 °F /  13.1 °C 31.6 °F /  -0.2 °C 30.37in /  1028.3hPa Calm   4.0mph /  6.4km/h 40% 0.00in /  0mm 272.0 W/m2
08:05 57.7 °F /  14.3 °C 31.6 °F /  -0.2 °C 30.37in /  1028.3hPa Calm   3.0mph /  4.8km/h 37% 0.00in /  0mm 302.0 W/m2
08:11 59.4 °F /  15.2 °C 32.4 °F /  0.2 °C 30.37in /  1028.3hPa NE 0.9mph /  1.4km/h 2.0mph /  3.2km/h 36% 0.00in /  0mm 320.0 W/m2
08:17 60.6 °F /  15.9 °C 32.2 °F /  0.1 °C 30.37in /  1028.3hPa Calm   2.0mph /  3.2km/h 34% 0.00in /  0mm 339.0 W/m2
08:23 61.9 °F /  16.6 °C 33.3 °F /  0.7 °C 30.37in /  1028.3hPa Calm   1.0mph /  1.6km/h 34% 0.00in /  0mm 359.0 W/m2
08:29 63.0 °F /  17.2 °C 33.4 °F /  0.8 °C 30.37in /  1028.3hPa NNE 0.9mph /  1.4km/h 2.0mph /  3.2km/h 33% 0.00in /  0mm 380.0 W/m2
08:35 64.0 °F /  17.8 °C 33.6 °F /  0.9 °C 30.37in /  1028.3hPa North 2.0mph /  3.2km/h 2.0mph /  3.2km/h 32% 0.00in /  0mm 399.0 W/m2
08:41 65.3 °F /  18.5 °C 33.8 °F /  1 °C 30.37in /  1028.3hPa Calm   2.0mph /  3.2km/h 31% 0.00in /  0mm 417.0 W/m2
08:48 66.0 °F /  18.9 °C 34.5 °F /  1.4 °C 30.37in /  1028.3hPa Calm   2.0mph /  3.2km/h 31% 0.00in /  0mm 434.0 W/m2
08:54 66.9 °F /  19.4 °C 33.6 °F /  0.9 °C 30.36in /  1028hPa Calm   3.0mph /  4.8km/h 29% 0.00in /  0mm 452.0 W/m2
09:00 67.8 °F /  19.9 °C 35.2 °F /  1.8 °C 30.37in /  1028.3hPa Calm   7.0mph /  11.3km/h 30% 0.00in /  0mm 468.0 W/m2
09:06 68.7 °F /  20.4 °C 36.0 °F /  2.2 °C 30.36in /  1028hPa NW 2.9mph /  4.7km/h 4.0mph /  6.4km/h 30% 0.00in /  0mm 485.0 W/m2
09:12 69.3 °F /  20.7 °C 35.6 °F /  2 °C 30.36in /  1028hPa NNW 2.9mph /  4.7km/h 5.0mph /  8km/h 29% 0.00in /  0mm 503.0 W/m2
09:18 70.0 °F /  21.1 °C 37.0 °F /  2.8 °C 30.36in /  1028hPa NW 0.9mph /  1.4km/h 5.0mph /  8km/h 30% 0.00in /  0mm 517.0 W/m2
09:25 70.2 °F /  21.2 °C 37.2 °F /  2.9 °C 30.36in /  1028hPa North 2.0mph /  3.2km/h 7.0mph /  11.3km/h 30% 0.00in /  0mm 531.0 W/m2
09:31 70.5 °F /  21.4 °C 37.6 °F /  3.1 °C 30.36in /  1028hPa Calm   7.0mph /  11.3km/h 30% 0.00in /  0mm 543.0 W/m2
09:37 70.9 °F /  21.6 °C 37.0 °F /  2.8 °C 30.36in /  1028hPa NNW 2.0mph /  3.2km/h 5.0mph /  8km/h 29% 0.00in /  0mm 559.0 W/m2
09:43 71.1 °F /  21.7 °C 37.2 °F /  2.9 °C 30.36in /  1028hPa NNE 4.9mph /  7.9km/h 7.0mph /  11.3km/h 29% 0.00in /  0mm 570.0 W/m2
09:49 71.2 °F /  21.8 °C 37.4 °F /  3 °C 30.35in /  1027.7hPa NNE 2.9mph /  4.7km/h 5.0mph /  8km/h 29% 0.00in /  0mm 578.0 W/m2
09:55 71.1 °F /  21.7 °C 38.1 °F /  3.4 °C 30.35in /  1027.7hPa NNW 2.0mph /  3.2km/h 8.0mph /  12.9km/h 30% 0.00in /  0mm 594.0 W/m2
10:01 70.9 °F /  21.6 °C 37.9 °F /  3.3 °C 30.35in /  1027.7hPa WNW 0.9mph /  1.4km/h 8.0mph /  12.9km/h 30% 0.00in /  0mm 598.0 W/m2
10:07 71.1 °F /  21.7 °C 38.1 °F /  3.4 °C 30.35in /  1027.7hPa WSW 2.0mph /  3.2km/h 8.0mph /  12.9km/h 30% 0.00in /  0mm 608.0 W/m2
10:13 71.2 °F /  21.8 °C 38.3 °F /  3.5 °C 30.35in /  1027.7hPa North 2.0mph /  3.2km/h 2.0mph /  3.2km/h 30% 0.00in /  0mm 621.0 W/m2
10:20 71.8 °F /  22.1 °C 38.7 °F /  3.7 °C 30.35in /  1027.7hPa NNW 4.0mph /  6.4km/h 9.0mph /  14.5km/h 30% 0.00in /  0mm 631.0 W/m2
10:26 71.8 °F /  22.1 °C 38.7 °F /  3.7 °C 30.35in /  1027.7hPa WSW 0.9mph /  1.4km/h 7.0mph /  11.3km/h 30% 0.00in /  0mm 642.0 W/m2
10:32 71.6 °F /  22 °C 38.5 °F /  3.6 °C 30.35in /  1027.7hPa NNW 2.0mph /  3.2km/h 8.0mph /  12.9km/h 30% 0.00in /  0mm 647.0 W/m2
10:38 71.8 °F /  22.1 °C 38.7 °F /  3.7 °C 30.35in /  1027.7hPa Calm   9.0mph /  14.5km/h 30% 0.00in /  0mm 649.0 W/m2
10:44 72.0 °F /  22.2 °C 38.8 °F /  3.8 °C 30.35in /  1027.7hPa NW 6.9mph /  11.1km/h 10.0mph /  16.1km/h 30% 0.00in /  0mm 652.0 W/m2
10:50 72.0 °F /  22.2 °C 38.8 °F /  3.8 °C 30.34in /  1027.3hPa Calm   6.0mph /  9.7km/h 30% 0.00in /  0mm 661.0 W/m2
10:56 72.0 °F /  22.2 °C 38.8 °F /  3.8 °C 30.33in /  1027hPa NNW 2.0mph /  3.2km/h 6.0mph /  9.7km/h 30% 0.00in /  0mm 671.0 W/m2
11:02 72.1 °F /  22.3 °C 39.9 °F /  4.4 °C 30.33in /  1027hPa Calm   9.0mph /  14.5km/h 31% 0.00in /  0mm 675.0 W/m2
11:08 72.1 °F /  22.3 °C 39.0 °F /  3.9 °C 30.33in /  1027hPa North 6.0mph /  9.7km/h 12.0mph /  19.3km/h 30% 0.00in /  0mm 682.0 W/m2
11:14 72.3 °F /  22.4 °C 39.2 °F /  4 °C 30.33in /  1027hPa NNW 4.0mph /  6.4km/h 9.0mph /  14.5km/h 30% 0.00in /  0mm 686.0 W/m2
11:20 72.7 °F /  22.6 °C 39.4 °F /  4.1 °C 30.32in /  1026.6hPa North 0.9mph /  1.4km/h 2.0mph /  3.2km/h 30% 0.00in /  0mm 684.0 W/m2
11:26 72.9 °F /  22.7 °C 39.6 °F /  4.2 °C 30.32in /  1026.6hPa North 4.0mph /  6.4km/h 11.0mph /  17.7km/h 30% 0.00in /  0mm 689.0 W/m2
11:32 73.0 °F /  22.8 °C 40.6 °F /  4.8 °C 30.32in /  1026.6hPa NNE 2.9mph /  4.7km/h 4.0mph /  6.4km/h 31% 0.00in /  0mm 689.0 W/m2
11:38 73.0 °F /  22.8 °C 38.8 °F /  3.8 °C 30.31in /  1026.3hPa NE 0.9mph /  1.4km/h 7.0mph /  11.3km/h 29% 0.00in /  0mm 689.0 W/m2
11:44 73.0 °F /  22.8 °C 39.7 °F /  4.3 °C 30.31in /  1026.3hPa NNW 6.0mph /  9.7km/h 10.0mph /  16.1km/h 30% 0.00in /  0mm 689.0 W/m2
11:50 73.0 °F /  22.8 °C 40.6 °F /  4.8 °C 30.31in /  1026.3hPa Calm   3.0mph /  4.8km/h 31% 0.00in /  0mm 686.0 W/m2
11:56 73.2 °F /  22.9 °C 39.9 °F /  4.4 °C 30.30in /  1026hPa NNW 0.9mph /  1.4km/h 6.0mph /  9.7km/h 30% 0.00in /  0mm 691.0 W/m2
12:02 73.2 °F /  22.9 °C 39.9 °F /  4.4 °C 30.30in /  1026hPa NNE 2.0mph /  3.2km/h 8.0mph /  12.9km/h 30% 0.00in /  0mm 687.0 W/m2
12:08 73.4 °F /  23 °C 40.1 °F /  4.5 °C 30.30in /  1026hPa North 4.0mph /  6.4km/h 5.0mph /  8km/h 30% 0.00in /  0mm 687.0 W/m2
12:14 73.2 °F /  22.9 °C 39.9 °F /  4.4 °C 30.29in /  1025.6hPa NNW 0.9mph /  1.4km/h 8.0mph /  12.9km/h 30% 0.00in /  0mm 686.0 W/m2
12:20 73.2 °F /  22.9 °C 39.9 °F /  4.4 °C 30.29in /  1025.6hPa NNW 4.9mph /  7.9km/h 6.0mph /  9.7km/h 30% 0.00in /  0mm 682.0 W/m2
12:26 73.4 °F /  23 °C 40.1 °F /  4.5 °C 30.28in /  1025.3hPa NNE 6.0mph /  9.7km/h 7.0mph /  11.3km/h 30% 0.00in /  0mm 673.0 W/m2
12:32 73.4 °F /  23 °C 41.0 °F /  5 °C 30.28in /  1025.3hPa West 0.9mph /  1.4km/h 3.0mph /  4.8km/h 31% 0.00in /  0mm 670.0 W/m2
12:38 73.4 °F /  23 °C 40.1 °F /  4.5 °C 30.28in /  1025.3hPa WSW 2.9mph /  4.7km/h 3.0mph /  4.8km/h 30% 0.00in /  0mm 664.0 W/m2
12:44 73.6 °F /  23.1 °C 40.3 °F /  4.6 °C 30.27in /  1024.9hPa NNW 2.0mph /  3.2km/h 4.0mph /  6.4km/h 30% 0.00in /  0mm 666.0 W/m2
12:50 73.9 °F /  23.3 °C 39.7 °F /  4.3 °C 30.27in /  1024.9hPa NNW 2.0mph /  3.2km/h 3.0mph /  4.8km/h 29% 0.00in /  0mm 652.0 W/m2
12:56 74.1 °F /  23.4 °C 40.6 °F /  4.8 °C 30.27in /  1024.9hPa NNW 2.0mph /  3.2km/h 5.0mph /  8km/h 30% 0.00in /  0mm 642.0 W/m2
13:02 74.3 °F /  23.5 °C 39.9 °F /  4.4 °C 30.27in /  1024.9hPa West 2.0mph /  3.2km/h 5.0mph /  8km/h 29% 0.00in /  0mm 640.0 W/m2
13:08 74.5 °F /  23.6 °C 39.2 °F /  4 °C 30.27in /  1024.9hPa NW 4.0mph /  6.4km/h 12.0mph /  19.3km/h 28% 0.00in /  0mm 631.0 W/m2
13:14 74.1 °F /  23.4 °C 39.9 °F /  4.4 °C 30.26in /  1024.6hPa NNW 2.9mph /  4.7km/h 6.0mph /  9.7km/h 29% 0.00in /  0mm 626.0 W/m2
13:20 73.9 °F /  23.3 °C 39.7 °F /  4.3 °C 30.26in /  1024.6hPa WNW 2.0mph /  3.2km/h 5.0mph /  8km/h 29% 0.00in /  0mm 606.0 W/m2
13:26 74.1 °F /  23.4 °C 39.9 °F /  4.4 °C 30.26in /  1024.6hPa NW 0.9mph /  1.4km/h 4.0mph /  6.4km/h 29% 0.00in /  0mm 599.0 W/m2
13:32 73.9 °F /  23.3 °C 39.7 °F /  4.3 °C 30.25in /  1024.3hPa West 2.0mph /  3.2km/h 10.0mph /  16.1km/h 29% 0.00in /  0mm 592.0 W/m2
13:38 73.9 °F /  23.3 °C 39.7 °F /  4.3 °C 30.25in /  1024.3hPa SW 0.9mph /  1.4km/h 2.0mph /  3.2km/h 29% 0.00in /  0mm 585.0 W/m2
13:44 73.9 °F /  23.3 °C 39.7 °F /  4.3 °C 30.25in /  1024.3hPa NW 4.9mph /  7.9km/h 8.0mph /  12.9km/h 29% 0.00in /  0mm 566.0 W/m2
13:50 73.8 °F /  23.2 °C 39.6 °F /  4.2 °C 30.25in /  1024.3hPa WSW 2.0mph /  3.2km/h 4.0mph /  6.4km/h 29% 0.00in /  0mm 554.0 W/m2
13:56 73.9 °F /  23.3 °C 39.7 °F /  4.3 °C 30.25in /  1024.3hPa Calm   8.0mph /  12.9km/h 29% 0.00in /  0mm 543.0 W/m2
14:02 73.9 °F /  23.3 °C 39.7 °F /  4.3 °C 30.25in /  1024.3hPa Calm   5.0mph /  8km/h 29% 0.00in /  0mm 533.0 W/m2
14:08 74.1 °F /  23.4 °C 39.9 °F /  4.4 °C 30.25in /  1024.3hPa North 4.0mph /  6.4km/h 5.0mph /  8km/h 29% 0.00in /  0mm 510.0 W/m2
14:14 74.3 °F /  23.5 °C 39.9 °F /  4.4 °C 30.25in /  1024.3hPa NE 2.9mph /  4.7km/h 9.0mph /  14.5km/h 29% 0.00in /  0mm 497.0 W/m2
14:20 73.8 °F /  23.2 °C 40.5 °F /  4.7 °C 30.25in /  1024.3hPa Calm   5.0mph /  8km/h 30% 0.00in /  0mm 483.0 W/m2
14:26 73.8 °F /  23.2 °C 39.6 °F /  4.2 °C 30.25in /  1024.3hPa NNE 2.0mph /  3.2km/h 8.0mph /  12.9km/h 29% 0.00in /  0mm 469.0 W/m2
14:32 73.8 °F /  23.2 °C 39.6 °F /  4.2 °C 30.25in /  1024.3hPa North 2.9mph /  4.7km/h 6.0mph /  9.7km/h 29% 0.00in /  0mm 455.0 W/m2
14:38 73.8 °F /  23.2 °C 39.6 °F /  4.2 °C 30.24in /  1023.9hPa NW 0.9mph /  1.4km/h 9.0mph /  14.5km/h 29% 0.00in /  0mm 439.0 W/m2
14:44 73.8 °F /  23.2 °C 40.5 °F /  4.7 °C 30.25in /  1024.3hPa WNW 0.9mph /  1.4km/h 5.0mph /  8km/h 30% 0.00in /  0mm 422.0 W/m2
14:50 73.8 °F /  23.2 °C 39.6 °F /  4.2 °C 30.24in /  1023.9hPa Calm   2.0mph /  3.2km/h 29% 0.00in /  0mm 406.0 W/m2
14:56 73.8 °F /  23.2 °C 39.6 °F /  4.2 °C 30.24in /  1023.9hPa Calm   7.0mph /  11.3km/h 29% 0.00in /  0mm 390.0 W/m2
15:02 73.6 °F /  23.1 °C 40.3 °F /  4.6 °C 30.25in /  1024.3hPa NW 6.9mph /  11.1km/h 7.0mph /  11.3km/h 30% 0.00in /  0mm 371.0 W/m2
15:08 73.6 °F /  23.1 °C 40.3 °F /  4.6 °C 30.25in /  1024.3hPa NW 6.0mph /  9.7km/h 8.0mph /  12.9km/h 30% 0.00in /  0mm 353.0 W/m2
15:14 73.4 °F /  23 °C 40.1 °F /  4.5 °C 30.25in /  1024.3hPa Calm   2.0mph /  3.2km/h 30% 0.00in /  0mm 330.0 W/m2
15:20 73.0 °F /  22.8 °C 39.7 °F /  4.3 °C 30.25in /  1024.3hPa NNW 4.9mph /  7.9km/h 9.0mph /  14.5km/h 30% 0.00in /  0mm 107.0 W/m2
15:26 72.9 °F /  22.7 °C 38.7 °F /  3.7 °C 30.25in /  1024.3hPa NW 4.0mph /  6.4km/h 6.0mph /  9.7km/h 29% 0.00in /  0mm 47.0 W/m2
15:32 72.7 °F /  22.6 °C 39.4 °F /  4.1 °C 30.25in /  1024.3hPa Calm   3.0mph /  4.8km/h 30% 0.00in /  0mm 44.0 W/m2
15:38 72.3 °F /  22.4 °C 39.2 °F /  4 °C 30.25in /  1024.3hPa NNW 4.9mph /  7.9km/h 5.0mph /  8km/h 30% 0.00in /  0mm 44.0 W/m2
15:44 72.0 °F /  22.2 °C 38.8 °F /  3.8 °C 30.25in /  1024.3hPa Calm   7.0mph /  11.3km/h 30% 0.00in /  0mm 42.0 W/m2
15:50 71.8 °F /  22.1 °C 38.7 °F /  3.7 °C 30.25in /  1024.3hPa Calm   3.0mph /  4.8km/h 30% 0.00in /  0mm 39.0 W/m2
15:56 71.4 °F /  21.9 °C 38.3 °F /  3.5 °C 30.25in /  1024.3hPa NNW 6.9mph /  11.1km/h 7.0mph /  11.3km/h 30% 0.00in /  0mm 35.0 W/m2
16:02 71.1 °F /  21.7 °C 38.1 °F /  3.4 °C 30.25in /  1024.3hPa NNW 4.9mph /  7.9km/h 5.0mph /  8km/h 30% 0.00in /  0mm 32.0 W/m2
16:08 70.9 °F /  21.6 °C 38.7 °F /  3.7 °C 30.26in /  1024.6hPa SSE 0.9mph /  1.4km/h 2.0mph /  3.2km/h 31% 0.00in /  0mm 26.0 W/m2
16:14 70.5 °F /  21.4 °C 38.5 °F /  3.6 °C 30.26in /  1024.6hPa NNW 0.9mph /  1.4km/h 4.0mph /  6.4km/h 31% 0.00in /  0mm 26.0 W/m2
16:20 70.2 °F /  21.2 °C 38.1 °F /  3.4 °C 30.26in /  1024.6hPa NNW 2.0mph /  3.2km/h 3.0mph /  4.8km/h 31% 0.00in /  0mm 25.0 W/m2
16:26 70.0 °F /  21.1 °C 37.9 °F /  3.3 °C 30.26in /  1024.6hPa Calm   3.0mph /  4.8km/h 31% 0.00in /  0mm 23.0 W/m2
16:32 69.6 °F /  20.9 °C 37.6 °F /  3.1 °C 30.26in /  1024.6hPa North 2.9mph /  4.7km/h 3.0mph /  4.8km/h 31% 0.00in /  0mm 21.0 W/m2
16:38 69.4 °F /  20.8 °C 38.3 °F /  3.5 °C 30.27in /  1024.9hPa North 4.0mph /  6.4km/h 5.0mph /  8km/h 32% 0.00in /  0mm 19.0 W/m2
16:44 69.3 °F /  20.7 °C 38.1 °F /  3.4 °C 30.27in /  1024.9hPa NNW 2.0mph /  3.2km/h 4.0mph /  6.4km/h 32% 0.00in /  0mm 18.0 W/m2
16:50 69.1 °F /  20.6 °C 37.9 °F /  3.3 °C 30.27in /  1024.9hPa Calm   3.0mph /  4.8km/h 32% 0.00in /  0mm 14.0 W/m2
16:56 68.7 °F /  20.4 °C 37.6 °F /  3.1 °C 30.27in /  1024.9hPa Calm   2.0mph /  3.2km/h 32% 0.00in /  0mm 12.0 W/m2
17:02 68.5 °F /  20.3 °C 38.3 °F /  3.5 °C 30.27in /  1024.9hPa Calm     33% 0.00in /  0mm 11.0 W/m2
17:08 68.2 °F /  20.1 °C 37.9 °F /  3.3 °C 30.27in /  1024.9hPa Calm   2.0mph /  3.2km/h 33% 0.00in /  0mm 7.0 W/m2
17:14 67.6 °F /  19.8 °C 39.0 °F /  3.9 °C 30.27in /  1024.9hPa Calm   1.0mph /  1.6km/h 35% 0.00in /  0mm 0.0 W/m2
17:20 66.9 °F /  19.4 °C 38.3 °F /  3.5 °C 30.28in /  1025.3hPa Calm     35% 0.00in /  0mm 0.0 W/m2
17:26 66.2 °F /  19 °C 38.5 °F /  3.6 °C 30.28in /  1025.3hPa Calm     36% 0.00in /  0mm 0.0 W/m2
17:32 65.7 °F /  18.7 °C 38.7 °F /  3.7 °C 30.28in /  1025.3hPa Calm     37% 0.00in /  0mm 0.0 W/m2
17:38 64.8 °F /  18.2 °C 37.9 °F /  3.3 °C 30.28in /  1025.3hPa Calm     37% 0.00in /  0mm 0.0 W/m2
17:44 64.0 °F /  17.8 °C 37.9 °F /  3.3 °C 30.28in /  1025.3hPa Calm     38% 0.00in /  0mm 0.0 W/m2
17:50 63.3 °F /  17.4 °C 37.9 °F /  3.3 °C 30.28in /  1025.3hPa Calm     39% 0.00in /  0mm 0.0 W/m2
17:56 62.8 °F /  17.1 °C 37.4 °F /  3 °C 30.28in /  1025.3hPa Calm     39% 0.00in /  0mm 0.0 W/m2
18:02 62.1 °F /  16.7 °C 38.1 °F /  3.4 °C 30.28in /  1025.3hPa Calm     41% 0.00in /  0mm 0.0 W/m2
18:09 61.3 °F /  16.3 °C 38.1 °F /  3.4 °C 30.28in /  1025.3hPa Calm     42% 0.00in /  0mm 0.0 W/m2
18:15 61.0 °F /  16.1 °C 37.8 °F /  3.2 °C 30.29in /  1025.6hPa Calm     42% 0.00in /  0mm 0.0 W/m2
18:21 60.3 °F /  15.7 °C 37.8 °F /  3.2 °C 30.29in /  1025.6hPa Calm     43% 0.00in /  0mm 0.0 W/m2
18:27 59.7 °F /  15.4 °C 37.2 °F /  2.9 °C 30.29in /  1025.6hPa Calm     43% 0.00in /  0mm 0.0 W/m2
18:33 59.4 °F /  15.2 °C 37.4 °F /  3 °C 30.29in /  1025.6hPa Calm   1.0mph /  1.6km/h 44% 0.00in /  0mm 0.0 W/m2
18:39 58.8 °F /  14.9 °C 37.6 °F /  3.1 °C 30.29in /  1025.6hPa Calm     45% 0.00in /  0mm 0.0 W/m2
18:45 58.5 °F /  14.7 °C 36.7 °F /  2.6 °C 30.30in /  1026hPa Calm     44% 0.00in /  0mm 0.0 W/m2
18:51 58.1 °F /  14.5 °C 36.9 °F /  2.7 °C 30.30in /  1026hPa Calm     45% 0.00in /  0mm 0.0 W/m2
18:57 57.7 °F /  14.3 °C 37.0 °F /  2.8 °C 30.30in /  1026hPa Calm     46% 0.00in /  0mm 0.0 W/m2
19:03 57.6 °F /  14.2 °C 36.9 °F /  2.7 °C 30.30in /  1026hPa Calm     46% 0.00in /  0mm 0.0 W/m2
19:09 57.4 °F /  14.1 °C 36.7 °F /  2.6 °C 30.30in /  1026hPa Calm     46% 0.00in /  0mm 0.0 W/m2
19:15 57.4 °F /  14.1 °C 37.4 °F /  3 °C 30.30in /  1026hPa Calm   1.0mph /  1.6km/h 47% 0.00in /  0mm 0.0 W/m2
19:21 57.0 °F /  13.9 °C 37.0 °F /  2.8 °C 30.30in /  1026hPa Calm     47% 0.00in /  0mm 0.0 W/m2
19:27 56.8 °F /  13.8 °C 37.4 °F /  3 °C 30.30in /  1026hPa Calm     48% 0.00in /  0mm 0.0 W/m2
19:33 56.7 °F /  13.7 °C 37.2 °F /  2.9 °C 30.30in /  1026hPa Calm     48% 0.00in /  0mm 0.0 W/m2
19:39 56.3 °F /  13.5 °C 36.9 °F /  2.7 °C 30.30in /  1026hPa Calm   2.0mph /  3.2km/h 48% 0.00in /  0mm 0.0 W/m2
19:45 56.1 °F /  13.4 °C 36.7 °F /  2.6 °C 30.30in /  1026hPa Calm   2.0mph /  3.2km/h 48% 0.00in /  0mm 0.0 W/m2
19:51 55.9 °F /  13.3 °C 37.0 °F /  2.8 °C 30.30in /  1026hPa Calm   1.0mph /  1.6km/h 49% 0.00in /  0mm 0.0 W/m2
19:57 55.8 °F /  13.2 °C 36.9 °F /  2.7 °C 30.30in /  1026hPa Calm   2.0mph /  3.2km/h 49% 0.00in /  0mm 0.0 W/m2
20:03 55.6 °F /  13.1 °C 36.7 °F /  2.6 °C 30.30in /  1026hPa Calm   1.0mph /  1.6km/h 49% 0.00in /  0mm 0.0 W/m2
20:09 55.6 °F /  13.1 °C 37.2 °F /  2.9 °C 30.30in /  1026hPa Calm   2.0mph /  3.2km/h 50% 0.00in /  0mm 0.0 W/m2
20:15 55.2 °F /  12.9 °C 36.9 °F /  2.7 °C 30.30in /  1026hPa ENE 0.9mph /  1.4km/h 2.0mph /  3.2km/h 50% 0.00in /  0mm 0.0 W/m2
20:21 55.2 °F /  12.9 °C 36.9 °F /  2.7 °C 30.31in /  1026.3hPa Calm   4.0mph /  6.4km/h 50% 0.00in /  0mm 0.0 W/m2
20:27 55.0 °F /  12.8 °C 36.7 °F /  2.6 °C 30.31in /  1026.3hPa East 0.9mph /  1.4km/h 4.0mph /  6.4km/h 50% 0.00in /  0mm 0.0 W/m2
20:33 54.9 °F /  12.7 °C 37.0 °F /  2.8 °C 30.31in /  1026.3hPa Calm   2.0mph /  3.2km/h 51% 0.00in /  0mm 0.0 W/m2
20:45 54.7 °F /  12.6 °C 36.9 °F /  2.7 °C 30.31in /  1026.3hPa Calm   2.0mph /  3.2km/h 51% 0.00in /  0mm 0.0 W/m2
20:51 54.7 °F /  12.6 °C 36.9 °F /  2.7 °C 30.31in /  1026.3hPa Calm   1.0mph /  1.6km/h 51% 0.00in /  0mm 0.0 W/m2
20:58 54.3 °F /  12.4 °C 36.5 °F /  2.5 °C 30.31in /  1026.3hPa Calm   1.0mph /  1.6km/h 51% 0.00in /  0mm 0.0 W/m2
21:04 54.3 °F /  12.4 °C 37.0 °F /  2.8 °C 30.31in /  1026.3hPa Calm     52% 0.00in /  0mm 0.0 W/m2
21:11 54.1 °F /  12.3 °C 36.9 °F /  2.7 °C 30.31in /  1026.3hPa Calm     52% 0.00in /  0mm 0.0 W/m2
21:16 54.0 °F /  12.2 °C 37.2 °F /  2.9 °C 30.31in /  1026.3hPa Calm     53% 0.00in /  0mm 0.0 W/m2
21:22 53.8 °F /  12.1 °C 37.0 °F /  2.8 °C 30.31in /  1026.3hPa Calm   2.0mph /  3.2km/h 53% 0.00in /  0mm 0.0 W/m2
21:28 53.4 °F /  11.9 °C 36.7 °F /  2.6 °C 30.31in /  1026.3hPa Calm   2.0mph /  3.2km/h 53% 0.00in /  0mm 0.0 W/m2
21:34 53.2 °F /  11.8 °C 37.0 °F /  2.8 °C 30.31in /  1026.3hPa East 2.0mph /  3.2km/h 3.0mph /  4.8km/h 54% 0.00in /  0mm 0.0 W/m2
21:40 53.2 °F /  11.8 °C 37.0 °F /  2.8 °C 30.31in /  1026.3hPa ENE 0.9mph /  1.4km/h 2.0mph /  3.2km/h 54% 0.00in /  0mm 0.0 W/m2
21:46 53.2 °F /  11.8 °C 37.0 °F /  2.8 °C 30.31in /  1026.3hPa Calm   3.0mph /  4.8km/h 54% 0.00in /  0mm 0.0 W/m2
21:53 53.2 °F /  11.8 °C 37.0 °F /  2.8 °C 30.31in /  1026.3hPa Calm   3.0mph /  4.8km/h 54% 0.00in /  0mm 0.0 W/m2
21:58 53.2 °F /  11.8 °C 37.0 °F /  2.8 °C 30.31in /  1026.3hPa ESE 0.9mph /  1.4km/h 2.0mph /  3.2km/h 54% 0.00in /  0mm 0.0 W/m2
22:04 53.2 °F /  11.8 °C 37.0 °F /  2.8 °C 30.31in /  1026.3hPa ENE 0.9mph /  1.4km/h 1.0mph /  1.6km/h 54% 0.00in /  0mm 0.0 W/m2
22:11 53.2 °F /  11.8 °C 37.4 °F /  3 °C 30.31in /  1026.3hPa ENE 2.0mph /  3.2km/h 3.0mph /  4.8km/h 55% 0.00in /  0mm 0.0 W/m2
22:17 53.4 °F /  11.9 °C 37.2 °F /  2.9 °C 30.31in /  1026.3hPa Calm   4.0mph /  6.4km/h 54% 0.00in /  0mm 0.0 W/m2
22:23 53.4 °F /  11.9 °C 37.2 °F /  2.9 °C 30.31in /  1026.3hPa Calm   3.0mph /  4.8km/h 54% 0.00in /  0mm 0.0 W/m2
22:29 53.4 °F /  11.9 °C 37.2 °F /  2.9 °C 30.31in /  1026.3hPa Calm   1.0mph /  1.6km/h 54% 0.00in /  0mm 0.0 W/m2
22:35 53.4 °F /  11.9 °C 37.2 °F /  2.9 °C 30.31in /  1026.3hPa Calm     54% 0.00in /  0mm 0.0 W/m2
22:41 53.4 °F /  11.9 °C 37.6 °F /  3.1 °C 30.31in /  1026.3hPa Calm   1.0mph /  1.6km/h 55% 0.00in /  0mm 0.0 W/m2
22:47 53.2 °F /  11.8 °C 37.0 °F /  2.8 °C 30.31in /  1026.3hPa Calm   1.0mph /  1.6km/h 54% 0.00in /  0mm 0.0 W/m2
22:49 53.2 °F /  11.8 °C 37.4 °F /  3 °C 30.31in /  1026.3hPa Calm     55% 0.00in /  0mm 0.0 W/m2
22:55 53.1 °F /  11.7 °C 37.4 °F /  3 °C 30.31in /  1026.3hPa Calm     55% 0.00in /  0mm 0.0 W/m2
23:01 53.1 °F /  11.7 °C 37.4 °F /  3 °C 30.31in /  1026.3hPa Calm     55% 0.00in /  0mm 0.0 W/m2
23:07 52.9 °F /  11.6 °C 37.2 °F /  2.9 °C 30.31in /  1026.3hPa Calm     55% 0.00in /  0mm 0.0 W/m2
23:14 52.5 °F /  11.4 °C 37.2 °F /  2.9 °C 30.30in /  1026hPa Calm     56% 0.00in /  0mm 0.0 W/m2
23:20 52.3 °F /  11.3 °C 37.0 °F /  2.8 °C 30.30in /  1026hPa Calm     56% 0.00in /  0mm 0.0 W/m2
23:26 52.2 °F /  11.2 °C 36.9 °F /  2.7 °C 30.30in /  1026hPa Calm     56% 0.00in /  0mm 0.0 W/m2
23:32 52.0 °F /  11.1 °C 37.2 °F /  2.9 °C 30.30in /  1026hPa Calm     57% 0.00in /  0mm 0.0 W/m2
23:38 51.8 °F /  11 °C 37.0 °F /  2.8 °C 30.30in /  1026hPa Calm     57% 0.00in /  0mm 0.0 W/m2
23:44 51.6 °F /  10.9 °C 36.9 °F /  2.7 °C 30.30in /  1026hPa Calm     57% 0.00in /  0mm 0.0 W/m2
23:50 51.6 °F /  10.9 °C 36.9 °F /  2.7 °C 30.30in /  1026hPa Calm   1.0mph /  1.6km/h 57% 0.00in /  0mm 0.0 W/m2
23:55 51.8 °F /  11 °C 37.0 °F /  2.8 °C 30.30in /  1026hPa Calm     57% 0.00in /  0mm 0.0 W/m2
Olympia, Windhoek, Namibia
Compliments of Weather Underground - 3 mb